Etlah, Missouri
Current Conditions -  °F | °C
As of 8:55 AM on Monday 24 Nov 2014 (Local Time) from KFYG Reporting Station
Overcast Overcast  
Wind Chill: 30°   Ceiling: 4100
Heat Index: 37°   Visibility: 10mi
Dew Point: 28°   Wind: 12mph
Humidity: 70%   Direction: 280°W
Pressure: 29.64"   Gusts: 17mph
Location:  38.6435°N, 91.3297°W
Report Text: KFYG 241455Z AUTO 28010G15KT 10SM OVC041 03/M02 A2964 RMK AO2
Loading
Personal Weather Stations






























Interactive Weather Map New forecast layout! Learn more

10-Day Weather Forecast

Advertisements
Track Severe Weather on mobile